createdAt,value
2022-09-22T00:09:33.449Z,4
2022-09-22T00:19:38.582Z,5
2022-09-22T00:29:45.664Z,4
2022-09-22T00:39:51.418Z,6
2022-09-22T00:49:57.498Z,7
2022-09-22T01:00:02.929Z,5
2022-09-22T01:10:10.823Z,6
2022-09-22T01:20:17.479Z,5
2022-09-22T01:30:22.327Z,5
2022-09-22T01:40:27.734Z,5
2022-09-22T01:50:32.384Z,6
2022-09-22T02:00:39.374Z,5
2022-09-22T02:10:45.849Z,5
2022-09-22T02:20:52.961Z,5
2022-09-22T02:31:18.869Z,4
2022-09-22T02:41:14.966Z,3
2022-09-22T02:51:20.124Z,4
2022-09-22T03:01:26.861Z,6
2022-09-22T03:11:33.744Z,4
2022-09-22T03:21:39.700Z,4
2022-09-22T03:31:45.797Z,4
2022-09-22T03:41:50.418Z,6
2022-09-22T03:51:55.864Z,7
2022-09-22T04:02:02.908Z,5
2022-09-22T04:12:07.424Z,6
2022-09-22T04:22:12.738Z,6
2022-09-22T04:32:16.784Z,7
2022-09-22T04:42:22.344Z,6
2022-09-22T04:52:29.607Z,5
2022-09-22T05:02:36.402Z,5
2022-09-22T05:12:40.600Z,4
2022-09-22T05:22:47.002Z,5
2022-09-22T05:32:53.104Z,5
2022-09-22T05:42:58.426Z,4
2022-09-22T05:53:04.980Z,5
2022-09-22T06:03:13.184Z,5
2022-09-22T06:13:16.831Z,4
2022-09-22T06:23:23.931Z,6
2022-09-22T06:33:29.759Z,6
2022-09-22T06:43:34.462Z,5
2022-09-22T06:53:39.594Z,5
2022-09-22T07:03:44.742Z,3
2022-09-22T07:13:50.222Z,8
2022-09-22T07:23:54.990Z,4
2022-09-22T07:34:01.310Z,6
2022-09-22T07:44:08.265Z,7
2022-09-22T07:54:11.487Z,5
2022-09-22T08:04:17.726Z,4
2022-09-22T08:14:21.543Z,4
2022-09-22T08:24:28.229Z,5
2022-09-22T08:34:32.971Z,10
2022-09-22T08:44:38.700Z,7
2022-09-22T08:54:50.317Z,7
2022-09-22T09:04:50.295Z,6
2022-09-22T09:14:56.141Z,4
2022-09-22T09:26:15.833Z,5
2022-09-22T09:36:27.010Z,4
2022-09-22T09:46:27.862Z,4
2022-09-22T09:56:33.757Z,4
2022-09-22T10:06:39.809Z,6
2022-09-22T10:16:46.242Z,4
2022-09-22T10:26:51.658Z,5
2022-09-22T10:36:59.322Z,8
2022-09-22T10:47:05.442Z,4
2022-09-22T10:57:11.796Z,6
2022-09-22T11:07:17.775Z,5
2022-09-22T11:17:22.507Z,3
2022-09-22T11:27:29.537Z,6
2022-09-22T11:37:38.264Z,6
2022-09-22T11:47:43.066Z,5
2022-09-22T11:57:48.701Z,5
2022-09-22T12:07:55.232Z,3
2022-09-22T12:18:07.278Z,3
2022-09-22T12:28:09.512Z,2
2022-09-22T12:38:15.013Z,4
2022-09-22T12:48:19.490Z,5
2022-09-22T12:58:27.562Z,3
2022-09-22T13:08:32.858Z,3
2022-09-22T13:18:38.715Z,3
2022-09-22T13:28:42.874Z,7
2022-09-22T13:38:47.548Z,3
2022-09-22T13:48:55.066Z,2
2022-09-22T13:58:57.425Z,4
2022-09-22T14:09:07.727Z,3
2022-09-22T14:19:11.093Z,3
2022-09-22T14:29:16.161Z,4
2022-09-22T14:39:46.417Z,3
2022-09-22T14:49:39.898Z,4
2022-09-22T14:59:45.797Z,6
2022-09-22T15:09:52.557Z,4
2022-09-22T15:19:58.638Z,3
2022-09-22T15:30:04.337Z,4
2022-09-22T15:40:09.584Z,4
2022-09-22T15:50:16.719Z,5
2022-09-22T16:00:21.947Z,3
2022-09-22T16:10:28.008Z,6
2022-09-22T16:20:33.488Z,4
2022-09-22T16:30:37.994Z,7
2022-09-22T16:40:45.659Z,9
2022-09-22T16:50:51.252Z,4
2022-09-22T17:00:57.514Z,4
2022-09-22T17:11:02.264Z,10
2022-09-22T17:21:07.955Z,7
2022-09-22T17:31:13.119Z,4
2022-09-22T17:41:20.556Z,4
2022-09-22T17:51:25.468Z,5
2022-09-22T18:01:33.485Z,6
2022-09-22T18:11:37.948Z,9
2022-09-22T18:21:44.651Z,7
2022-09-22T18:31:51.839Z,10
2022-09-22T18:42:01.390Z,9
2022-09-22T18:52:00.959Z,11
2022-09-22T19:02:11.599Z,16
2022-09-22T19:12:12.912Z,16
2022-09-22T19:22:17.945Z,9
2022-09-22T19:32:23.099Z,6
2022-09-22T19:42:28.505Z,6
2022-09-22T20:02:40.531Z,7
2022-09-22T20:12:44.159Z,9
2022-09-22T20:22:51.693Z,6
2022-09-22T20:32:56.715Z,7
2022-09-22T20:43:01.875Z,8
2022-09-22T20:53:08.186Z,7
2022-09-22T21:03:14.063Z,15
2022-09-22T21:13:19.967Z,98
2022-09-22T21:23:25.938Z,171
2022-09-22T21:33:32.336Z,100
2022-09-22T21:43:37.244Z,31
2022-09-22T21:53:42.643Z,4
2022-09-22T22:03:48.933Z,5
2022-09-22T22:13:53.526Z,5
2022-09-22T22:24:01.303Z,6
2022-09-22T22:34:04.726Z,5
2022-09-22T22:44:09.393Z,6
2022-09-22T22:54:14.896Z,4
2022-09-22T23:04:20.548Z,6
2022-09-22T23:14:25.204Z,5
2022-09-22T23:24:32.242Z,4
2022-09-22T23:34:36.419Z,6
2022-09-22T23:44:41.497Z,5
2022-09-22T23:54:48.440Z,6
